sensor_id;sensor_type;location;lat;lon;timestamp;P1;durP1;ratioP1;P2;durP2;ratioP2
10985;SDS011;5546;48.714;8.738;2022-12-18T00:02:16;35.47;;;17.30;;
10985;SDS011;5546;48.714;8.738;2022-12-18T00:04:42;31.23;;;17.50;;
10985;SDS011;5546;48.714;8.738;2022-12-18T00:07:07;33.83;;;15.73;;
10985;SDS011;5546;48.714;8.738;2022-12-18T00:09:33;29.97;;;15.43;;
10985;SDS011;5546;48.714;8.738;2022-12-18T00:11:59;28.53;;;16.17;;
10985;SDS011;5546;48.714;8.738;2022-12-18T00:14:24;31.77;;;16.00;;
10985;SDS011;5546;48.714;8.738;2022-12-18T00:16:50;29.10;;;15.67;;
10985;SDS011;5546;48.714;8.738;2022-12-18T00:19:15;31.10;;;17.17;;
10985;SDS011;5546;48.714;8.738;2022-12-18T00:21:41;30.37;;;15.20;;
10985;SDS011;5546;48.714;8.738;2022-12-18T00:24:08;26.80;;;13.90;;
10985;SDS011;5546;48.714;8.738;2022-12-18T00:26:35;27.77;;;14.40;;
10985;SDS011;5546;48.714;8.738;2022-12-18T00:29:06;26.70;;;14.40;;
10985;SDS011;5546;48.714;8.738;2022-12-18T00:31:38;33.53;;;16.70;;
10985;SDS011;5546;48.714;8.738;2022-12-18T00:34:04;32.80;;;15.67;;
10985;SDS011;5546;48.714;8.738;2022-12-18T00:36:31;30.77;;;15.40;;
10985;SDS011;5546;48.714;8.738;2022-12-18T00:38:58;31.53;;;14.87;;
10985;SDS011;5546;48.714;8.738;2022-12-18T00:41:28;30.60;;;14.23;;
10985;SDS011;5546;48.714;8.738;2022-12-18T00:44:13;27.87;;;15.60;;
10985;SDS011;5546;48.714;8.738;2022-12-18T00:46:41;31.40;;;16.60;;
10985;SDS011;5546;48.714;8.738;2022-12-18T00:49:07;32.43;;;14.77;;
10985;SDS011;5546;48.714;8.738;2022-12-18T00:51:33;27.33;;;15.43;;
10985;SDS011;5546;48.714;8.738;2022-12-18T00:53:58;29.90;;;15.73;;
10985;SDS011;5546;48.714;8.738;2022-12-18T00:56:24;27.50;;;14.97;;
10985;SDS011;5546;48.714;8.738;2022-12-18T00:58:50;24.37;;;14.67;;
10985;SDS011;5546;48.714;8.738;2022-12-18T01:01:16;32.80;;;15.23;;
10985;SDS011;5546;48.714;8.738;2022-12-18T01:03:41;27.90;;;15.77;;
10985;SDS011;5546;48.714;8.738;2022-12-18T01:06:08;30.47;;;15.00;;
10985;SDS011;5546;48.714;8.738;2022-12-18T01:08:35;29.17;;;14.97;;
10985;SDS011;5546;48.714;8.738;2022-12-18T01:11:06;34.23;;;15.87;;
10985;SDS011;5546;48.714;8.738;2022-12-18T01:13:36;26.93;;;14.50;;
10985;SDS011;5546;48.714;8.738;2022-12-18T01:16:02;28.47;;;15.50;;
10985;SDS011;5546;48.714;8.738;2022-12-18T01:18:28;31.87;;;15.43;;
10985;SDS011;5546;48.714;8.738;2022-12-18T01:20:54;27.93;;;14.23;;
10985;SDS011;5546;48.714;8.738;2022-12-18T01:23:19;26.60;;;13.67;;
10985;SDS011;5546;48.714;8.738;2022-12-18T01:25:45;26.87;;;14.57;;
10985;SDS011;5546;48.714;8.738;2022-12-18T01:28:10;30.97;;;15.63;;
10985;SDS011;5546;48.714;8.738;2022-12-18T01:30:36;25.90;;;14.27;;
10985;SDS011;5546;48.714;8.738;2022-12-18T01:33:04;28.67;;;14.33;;
10985;SDS011;5546;48.714;8.738;2022-12-18T01:35:29;30.30;;;15.57;;
10985;SDS011;5546;48.714;8.738;2022-12-18T01:37:55;30.43;;;15.00;;
10985;SDS011;5546;48.714;8.738;2022-12-18T01:40:21;27.13;;;15.10;;
10985;SDS011;5546;48.714;8.738;2022-12-18T01:42:51;25.00;;;13.57;;
10985;SDS011;5546;48.714;8.738;2022-12-18T01:47:51;22.13;;;12.70;;
10985;SDS011;5546;48.714;8.738;2022-12-18T01:50:40;27.97;;;13.73;;
10985;SDS011;5546;48.714;8.738;2022-12-18T01:55:36;29.07;;;15.03;;
10985;SDS011;5546;48.714;8.738;2022-12-18T01:58:07;29.17;;;14.40;;
10985;SDS011;5546;48.714;8.738;2022-12-18T02:00:33;30.00;;;14.50;;
10985;SDS011;5546;48.714;8.738;2022-12-18T02:02:59;29.33;;;14.90;;
10985;SDS011;5546;48.714;8.738;2022-12-18T02:08:24;33.50;;;15.17;;
10985;SDS011;5546;48.714;8.738;2022-12-18T02:13:21;21.73;;;11.27;;
10985;SDS011;5546;48.714;8.738;2022-12-18T02:18:56;27.70;;;14.93;;
10985;SDS011;5546;48.714;8.738;2022-12-18T02:21:28;28.13;;;16.40;;
10985;SDS011;5546;48.714;8.738;2022-12-18T02:27:00;27.77;;;13.27;;
10985;SDS011;5546;48.714;8.738;2022-12-18T02:29:37;29.40;;;14.63;;
10985;SDS011;5546;48.714;8.738;2022-12-18T02:32:08;30.10;;;15.30;;
10985;SDS011;5546;48.714;8.738;2022-12-18T02:34:39;27.43;;;14.40;;
10985;SDS011;5546;48.714;8.738;2022-12-18T02:37:09;28.03;;;15.60;;
10985;SDS011;5546;48.714;8.738;2022-12-18T02:39:38;29.67;;;15.67;;
10985;SDS011;5546;48.714;8.738;2022-12-18T02:42:06;27.07;;;13.23;;
10985;SDS011;5546;48.714;8.738;2022-12-18T02:44:33;33.13;;;17.70;;
10985;SDS011;5546;48.714;8.738;2022-12-18T02:47:00;22.63;;;12.37;;
10985;SDS011;5546;48.714;8.738;2022-12-18T02:54:53;28.50;;;15.27;;
10985;SDS011;5546;48.714;8.738;2022-12-18T02:57:37;30.97;;;16.57;;
10985;SDS011;5546;48.714;8.738;2022-12-18T03:00:11;33.50;;;15.40;;
10985;SDS011;5546;48.714;8.738;2022-12-18T03:02:45;30.17;;;15.63;;
10985;SDS011;5546;48.714;8.738;2022-12-18T03:05:33;29.43;;;16.20;;
10985;SDS011;5546;48.714;8.738;2022-12-18T03:08:09;32.57;;;14.93;;
10985;SDS011;5546;48.714;8.738;2022-12-18T03:10:41;31.10;;;16.20;;
10985;SDS011;5546;48.714;8.738;2022-12-18T03:13:15;33.07;;;16.13;;
10985;SDS011;5546;48.714;8.738;2022-12-18T03:15:47;27.73;;;14.83;;
10985;SDS011;5546;48.714;8.738;2022-12-18T03:18:20;28.20;;;15.57;;
10985;SDS011;5546;48.714;8.738;2022-12-18T03:20:49;28.47;;;15.03;;
10985;SDS011;5546;48.714;8.738;2022-12-18T03:23:20;25.20;;;13.40;;
10985;SDS011;5546;48.714;8.738;2022-12-18T03:25:50;28.07;;;14.93;;
10985;SDS011;5546;48.714;8.738;2022-12-18T03:28:20;30.90;;;14.50;;
10985;SDS011;5546;48.714;8.738;2022-12-18T03:30:47;26.10;;;13.77;;
10985;SDS011;5546;48.714;8.738;2022-12-18T03:33:18;27.27;;;14.30;;
10985;SDS011;5546;48.714;8.738;2022-12-18T03:35:50;27.97;;;15.13;;
10985;SDS011;5546;48.714;8.738;2022-12-18T03:38:15;25.63;;;13.57;;
10985;SDS011;5546;48.714;8.738;2022-12-18T03:46:08;28.33;;;14.20;;
10985;SDS011;5546;48.714;8.738;2022-12-18T03:48:51;28.93;;;15.13;;
10985;SDS011;5546;48.714;8.738;2022-12-18T03:51:28;27.33;;;12.40;;
10985;SDS011;5546;48.714;8.738;2022-12-18T03:54:07;21.03;;;12.43;;
10985;SDS011;5546;48.714;8.738;2022-12-18T03:56:45;22.53;;;11.60;;
10985;SDS011;5546;48.714;8.738;2022-12-18T03:59:15;19.77;;;10.27;;
10985;SDS011;5546;48.714;8.738;2022-12-18T04:01:45;22.83;;;11.43;;
10985;SDS011;5546;48.714;8.738;2022-12-18T04:04:12;22.93;;;11.93;;
10985;SDS011;5546;48.714;8.738;2022-12-18T04:06:39;19.33;;;9.60;;
10985;SDS011;5546;48.714;8.738;2022-12-18T04:09:06;20.70;;;11.47;;
10985;SDS011;5546;48.714;8.738;2022-12-18T04:11:32;16.90;;;10.10;;
10985;SDS011;5546;48.714;8.738;2022-12-18T04:13:58;19.93;;;9.27;;
10985;SDS011;5546;48.714;8.738;2022-12-18T04:16:27;22.33;;;11.50;;
10985;SDS011;5546;48.714;8.738;2022-12-18T04:18:53;23.93;;;11.87;;
10985;SDS011;5546;48.714;8.738;2022-12-18T04:21:19;29.50;;;14.30;;
10985;SDS011;5546;48.714;8.738;2022-12-18T04:23:45;24.47;;;13.43;;
10985;SDS011;5546;48.714;8.738;2022-12-18T04:26:10;22.97;;;12.23;;
10985;SDS011;5546;48.714;8.738;2022-12-18T04:28:36;23.33;;;12.37;;
10985;SDS011;5546;48.714;8.738;2022-12-18T04:31:02;24.33;;;12.33;;
10985;SDS011;5546;48.714;8.738;2022-12-18T04:33:27;24.37;;;13.40;;
10985;SDS011;5546;48.714;8.738;2022-12-18T04:35:53;26.40;;;12.13;;
10985;SDS011;5546;48.714;8.738;2022-12-18T04:38:18;20.60;;;11.90;;
10985;SDS011;5546;48.714;8.738;2022-12-18T04:40:44;21.87;;;11.90;;
10985;SDS011;5546;48.714;8.738;2022-12-18T04:43:09;22.77;;;12.03;;
10985;SDS011;5546;48.714;8.738;2022-12-18T04:45:35;23.30;;;13.10;;
10985;SDS011;5546;48.714;8.738;2022-12-18T04:48:01;23.20;;;12.63;;
10985;SDS011;5546;48.714;8.738;2022-12-18T04:50:27;22.57;;;11.93;;
10985;SDS011;5546;48.714;8.738;2022-12-18T04:52:53;25.20;;;12.23;;
10985;SDS011;5546;48.714;8.738;2022-12-18T04:55:18;24.30;;;12.47;;
10985;SDS011;5546;48.714;8.738;2022-12-18T04:57:44;22.77;;;12.33;;
10985;SDS011;5546;48.714;8.738;2022-12-18T05:00:10;24.80;;;11.87;;
10985;SDS011;5546;48.714;8.738;2022-12-18T05:02:36;23.70;;;11.87;;
10985;SDS011;5546;48.714;8.738;2022-12-18T05:05:02;23.33;;;12.27;;
10985;SDS011;5546;48.714;8.738;2022-12-18T05:07:27;23.83;;;12.63;;
10985;SDS011;5546;48.714;8.738;2022-12-18T05:09:53;23.80;;;12.43;;
10985;SDS011;5546;48.714;8.738;2022-12-18T05:12:18;23.03;;;12.50;;
10985;SDS011;5546;48.714;8.738;2022-12-18T05:14:44;25.87;;;13.20;;
10985;SDS011;5546;48.714;8.738;2022-12-18T05:17:09;21.70;;;11.57;;
10985;SDS011;5546;48.714;8.738;2022-12-18T05:19:35;26.33;;;13.77;;
10985;SDS011;5546;48.714;8.738;2022-12-18T05:22:01;27.83;;;14.00;;
10985;SDS011;5546;48.714;8.738;2022-12-18T05:24:26;27.23;;;13.50;;
10985;SDS011;5546;48.714;8.738;2022-12-18T05:26:52;21.50;;;11.97;;
10985;SDS011;5546;48.714;8.738;2022-12-18T05:29:17;29.07;;;13.93;;
10985;SDS011;5546;48.714;8.738;2022-12-18T05:31:43;24.80;;;14.27;;
10985;SDS011;5546;48.714;8.738;2022-12-18T05:34:09;25.17;;;13.77;;
10985;SDS011;5546;48.714;8.738;2022-12-18T05:36:35;28.83;;;13.83;;
10985;SDS011;5546;48.714;8.738;2022-12-18T05:39:01;24.33;;;14.30;;
10985;SDS011;5546;48.714;8.738;2022-12-18T05:41:27;28.70;;;15.07;;
10985;SDS011;5546;48.714;8.738;2022-12-18T05:43:52;28.67;;;13.73;;
10985;SDS011;5546;48.714;8.738;2022-12-18T05:46:18;24.70;;;13.53;;
10985;SDS011;5546;48.714;8.738;2022-12-18T05:48:44;24.33;;;13.47;;
10985;SDS011;5546;48.714;8.738;2022-12-18T05:51:14;23.53;;;12.47;;
10985;SDS011;5546;48.714;8.738;2022-12-18T05:53:41;23.63;;;13.77;;
10985;SDS011;5546;48.714;8.738;2022-12-18T05:56:09;30.37;;;13.97;;
10985;SDS011;5546;48.714;8.738;2022-12-18T05:58:36;29.77;;;13.47;;
10985;SDS011;5546;48.714;8.738;2022-12-18T06:01:10;26.10;;;14.33;;
10985;SDS011;5546;48.714;8.738;2022-12-18T06:03:37;27.30;;;14.80;;
10985;SDS011;5546;48.714;8.738;2022-12-18T06:06:02;27.60;;;14.20;;
10985;SDS011;5546;48.714;8.738;2022-12-18T06:08:29;27.37;;;14.20;;
10985;SDS011;5546;48.714;8.738;2022-12-18T06:10:54;25.27;;;14.13;;
10985;SDS011;5546;48.714;8.738;2022-12-18T06:13:20;24.03;;;13.77;;
10985;SDS011;5546;48.714;8.738;2022-12-18T06:15:46;24.07;;;12.33;;
10985;SDS011;5546;48.714;8.738;2022-12-18T06:18:11;27.57;;;13.47;;
10985;SDS011;5546;48.714;8.738;2022-12-18T06:20:37;24.40;;;12.93;;
10985;SDS011;5546;48.714;8.738;2022-12-18T06:23:04;24.30;;;13.93;;
10985;SDS011;5546;48.714;8.738;2022-12-18T06:25:30;21.47;;;12.23;;
10985;SDS011;5546;48.714;8.738;2022-12-18T06:27:56;19.97;;;12.00;;
10985;SDS011;5546;48.714;8.738;2022-12-18T06:30:21;26.53;;;13.00;;
10985;SDS011;5546;48.714;8.738;2022-12-18T06:32:47;23.90;;;13.10;;
10985;SDS011;5546;48.714;8.738;2022-12-18T06:35:13;21.77;;;12.77;;
10985;SDS011;5546;48.714;8.738;2022-12-18T06:37:39;30.03;;;13.40;;
10985;SDS011;5546;48.714;8.738;2022-12-18T06:40:05;22.60;;;13.03;;
10985;SDS011;5546;48.714;8.738;2022-12-18T06:42:31;24.13;;;12.17;;
10985;SDS011;5546;48.714;8.738;2022-12-18T06:44:56;25.73;;;12.37;;
10985;SDS011;5546;48.714;8.738;2022-12-18T06:47:22;23.47;;;12.17;;
10985;SDS011;5546;48.714;8.738;2022-12-18T06:49:48;26.20;;;13.93;;
10985;SDS011;5546;48.714;8.738;2022-12-18T06:52:16;29.97;;;13.03;;
10985;SDS011;5546;48.714;8.738;2022-12-18T06:54:42;27.17;;;12.43;;
10985;SDS011;5546;48.714;8.738;2022-12-18T06:57:07;24.90;;;13.80;;
10985;SDS011;5546;48.714;8.738;2022-12-18T06:59:33;24.47;;;12.80;;
10985;SDS011;5546;48.714;8.738;2022-12-18T07:01:58;24.47;;;12.40;;
10985;SDS011;5546;48.714;8.738;2022-12-18T07:04:28;29.60;;;14.10;;
10985;SDS011;5546;48.714;8.738;2022-12-18T07:06:54;22.70;;;10.93;;
10985;SDS011;5546;48.714;8.738;2022-12-18T07:09:20;22.43;;;12.37;;
10985;SDS011;5546;48.714;8.738;2022-12-18T07:11:45;30.93;;;13.47;;
10985;SDS011;5546;48.714;8.738;2022-12-18T07:14:11;23.80;;;12.33;;
10985;SDS011;5546;48.714;8.738;2022-12-18T07:16:36;28.27;;;13.80;;
10985;SDS011;5546;48.714;8.738;2022-12-18T07:19:02;24.90;;;12.50;;
10985;SDS011;5546;48.714;8.738;2022-12-18T07:21:27;30.37;;;13.77;;
10985;SDS011;5546;48.714;8.738;2022-12-18T07:23:53;32.37;;;14.40;;
10985;SDS011;5546;48.714;8.738;2022-12-18T07:26:19;28.60;;;13.80;;
10985;SDS011;5546;48.714;8.738;2022-12-18T07:28:46;26.70;;;13.93;;
10985;SDS011;5546;48.714;8.738;2022-12-18T07:31:16;29.40;;;16.40;;
10985;SDS011;5546;48.714;8.738;2022-12-18T07:33:44;24.03;;;12.90;;
10985;SDS011;5546;48.714;8.738;2022-12-18T07:36:11;28.47;;;14.83;;
10985;SDS011;5546;48.714;8.738;2022-12-18T07:38:37;21.17;;;10.63;;
10985;SDS011;5546;48.714;8.738;2022-12-18T07:41:04;26.00;;;12.67;;
10985;SDS011;5546;48.714;8.738;2022-12-18T07:43:31;21.87;;;10.77;;
10985;SDS011;5546;48.714;8.738;2022-12-18T07:45:56;25.67;;;12.47;;
10985;SDS011;5546;48.714;8.738;2022-12-18T07:48:22;23.40;;;13.23;;
10985;SDS011;5546;48.714;8.738;2022-12-18T07:50:48;27.47;;;12.73;;
10985;SDS011;5546;48.714;8.738;2022-12-18T07:53:13;26.00;;;13.23;;
10985;SDS011;5546;48.714;8.738;2022-12-18T07:55:39;26.70;;;13.20;;
10985;SDS011;5546;48.714;8.738;2022-12-18T07:58:06;24.27;;;13.90;;
10985;SDS011;5546;48.714;8.738;2022-12-18T08:00:32;25.53;;;13.87;;
10985;SDS011;5546;48.714;8.738;2022-12-18T08:02:57;26.27;;;13.93;;
10985;SDS011;5546;48.714;8.738;2022-12-18T08:05:23;26.97;;;13.43;;
10985;SDS011;5546;48.714;8.738;2022-12-18T08:07:49;26.47;;;13.67;;
10985;SDS011;5546;48.714;8.738;2022-12-18T08:10:14;35.53;;;14.30;;
10985;SDS011;5546;48.714;8.738;2022-12-18T08:12:40;24.47;;;14.03;;
10985;SDS011;5546;48.714;8.738;2022-12-18T08:15:06;26.63;;;14.73;;
10985;SDS011;5546;48.714;8.738;2022-12-18T08:17:31;22.57;;;13.77;;
10985;SDS011;5546;48.714;8.738;2022-12-18T08:19:57;27.67;;;14.67;;
10985;SDS011;5546;48.714;8.738;2022-12-18T08:22:23;30.47;;;14.80;;
10985;SDS011;5546;48.714;8.738;2022-12-18T08:24:48;26.07;;;14.33;;
10985;SDS011;5546;48.714;8.738;2022-12-18T08:27:14;28.83;;;13.93;;
10985;SDS011;5546;48.714;8.738;2022-12-18T08:29:39;27.00;;;14.10;;
10985;SDS011;5546;48.714;8.738;2022-12-18T08:32:05;27.13;;;14.37;;
10985;SDS011;5546;48.714;8.738;2022-12-18T08:34:30;31.10;;;15.07;;
10985;SDS011;5546;48.714;8.738;2022-12-18T08:36:56;28.13;;;14.10;;
10985;SDS011;5546;48.714;8.738;2022-12-18T08:39:21;23.93;;;14.00;;
10985;SDS011;5546;48.714;8.738;2022-12-18T08:41:47;26.57;;;14.37;;
10985;SDS011;5546;48.714;8.738;2022-12-18T08:44:32;27.50;;;14.47;;
10985;SDS011;5546;48.714;8.738;2022-12-18T08:47:04;28.83;;;15.33;;
10985;SDS011;5546;48.714;8.738;2022-12-18T08:49:31;26.53;;;14.13;;
10985;SDS011;5546;48.714;8.738;2022-12-18T08:51:56;24.87;;;14.33;;
10985;SDS011;5546;48.714;8.738;2022-12-18T08:54:22;26.53;;;14.77;;
10985;SDS011;5546;48.714;8.738;2022-12-18T08:56:48;29.07;;;14.90;;
10985;SDS011;5546;48.714;8.738;2022-12-18T08:59:17;34.90;;;16.43;;
10985;SDS011;5546;48.714;8.738;2022-12-18T09:01:43;28.17;;;14.70;;
10985;SDS011;5546;48.714;8.738;2022-12-18T09:04:09;29.60;;;15.27;;
10985;SDS011;5546;48.714;8.738;2022-12-18T09:06:35;28.57;;;15.90;;
10985;SDS011;5546;48.714;8.738;2022-12-18T09:09:01;28.50;;;14.70;;
10985;SDS011;5546;48.714;8.738;2022-12-18T09:11:28;29.23;;;15.03;;
10985;SDS011;5546;48.714;8.738;2022-12-18T09:13:54;26.73;;;14.30;;
10985;SDS011;5546;48.714;8.738;2022-12-18T09:16:21;32.10;;;15.50;;
10985;SDS011;5546;48.714;8.738;2022-12-18T09:18:48;32.80;;;16.00;;
10985;SDS011;5546;48.714;8.738;2022-12-18T09:21:18;31.37;;;16.43;;
10985;SDS011;5546;48.714;8.738;2022-12-18T09:23:49;28.47;;;15.57;;
10985;SDS011;5546;48.714;8.738;2022-12-18T09:26:15;27.03;;;16.43;;
10985;SDS011;5546;48.714;8.738;2022-12-18T09:28:41;28.53;;;16.43;;
10985;SDS011;5546;48.714;8.738;2022-12-18T09:31:08;27.47;;;15.00;;
10985;SDS011;5546;48.714;8.738;2022-12-18T09:33:35;28.47;;;16.40;;
10985;SDS011;5546;48.714;8.738;2022-12-18T09:36:02;33.90;;;16.63;;
10985;SDS011;5546;48.714;8.738;2022-12-18T09:38:28;29.70;;;15.23;;
10985;SDS011;5546;48.714;8.738;2022-12-18T09:40:56;28.80;;;16.00;;
10985;SDS011;5546;48.714;8.738;2022-12-18T09:43:45;28.67;;;15.20;;
10985;SDS011;5546;48.714;8.738;2022-12-18T09:46:23;35.03;;;16.63;;
10985;SDS011;5546;48.714;8.738;2022-12-18T09:48:52;31.43;;;17.30;;
10985;SDS011;5546;48.714;8.738;2022-12-18T09:51:33;31.57;;;16.97;;
10985;SDS011;5546;48.714;8.738;2022-12-18T09:54:14;33.80;;;18.43;;
10985;SDS011;5546;48.714;8.738;2022-12-18T09:56:45;35.17;;;18.07;;
10985;SDS011;5546;48.714;8.738;2022-12-18T09:59:44;34.60;;;17.73;;
10985;SDS011;5546;48.714;8.738;2022-12-18T10:02:12;32.73;;;16.60;;
10985;SDS011;5546;48.714;8.738;2022-12-18T10:04:49;36.83;;;18.67;;
10985;SDS011;5546;48.714;8.738;2022-12-18T10:07:28;35.90;;;19.57;;
10985;SDS011;5546;48.714;8.738;2022-12-18T10:13:11;37.33;;;16.03;;
10985;SDS011;5546;48.714;8.738;2022-12-18T10:16:08;38.10;;;18.00;;
10985;SDS011;5546;48.714;8.738;2022-12-18T10:21:32;35.60;;;17.83;;
10985;SDS011;5546;48.714;8.738;2022-12-18T10:24:22;33.20;;;16.70;;
10985;SDS011;5546;48.714;8.738;2022-12-18T10:27:15;36.03;;;18.03;;
10985;SDS011;5546;48.714;8.738;2022-12-18T10:29:43;38.60;;;18.43;;
10985;SDS011;5546;48.714;8.738;2022-12-18T10:32:13;38.70;;;19.33;;
10985;SDS011;5546;48.714;8.738;2022-12-18T10:34:40;36.20;;;16.67;;
10985;SDS011;5546;48.714;8.738;2022-12-18T10:37:06;37.20;;;18.83;;
10985;SDS011;5546;48.714;8.738;2022-12-18T10:39:41;50.63;;;22.27;;
10985;SDS011;5546;48.714;8.738;2022-12-18T10:42:11;39.97;;;17.13;;
10985;SDS011;5546;48.714;8.738;2022-12-18T10:44:45;39.47;;;19.27;;
10985;SDS011;5546;48.714;8.738;2022-12-18T10:47:25;37.93;;;18.43;;
10985;SDS011;5546;48.714;8.738;2022-12-18T10:49:52;33.60;;;17.90;;
10985;SDS011;5546;48.714;8.738;2022-12-18T10:52:23;41.23;;;20.30;;
10985;SDS011;5546;48.714;8.738;2022-12-18T10:55:01;37.00;;;20.03;;
10985;SDS011;5546;48.714;8.738;2022-12-18T10:57:30;38.10;;;17.23;;
10985;SDS011;5546;48.714;8.738;2022-12-18T10:59:58;37.23;;;19.03;;
10985;SDS011;5546;48.714;8.738;2022-12-18T11:05:02;37.67;;;18.23;;
10985;SDS011;5546;48.714;8.738;2022-12-18T11:07:48;40.67;;;19.23;;
10985;SDS011;5546;48.714;8.738;2022-12-18T11:10:18;35.13;;;16.87;;
10985;SDS011;5546;48.714;8.738;2022-12-18T11:12:45;35.10;;;18.37;;
10985;SDS011;5546;48.714;8.738;2022-12-18T11:15:16;32.80;;;17.20;;
10985;SDS011;5546;48.714;8.738;2022-12-18T11:17:52;39.30;;;19.37;;
10985;SDS011;5546;48.714;8.738;2022-12-18T11:20:31;33.03;;;17.40;;
10985;SDS011;5546;48.714;8.738;2022-12-18T11:23:00;42.30;;;20.57;;
10985;SDS011;5546;48.714;8.738;2022-12-18T11:25:29;33.90;;;17.80;;
10985;SDS011;5546;48.714;8.738;2022-12-18T11:27:56;38.20;;;18.03;;
10985;SDS011;5546;48.714;8.738;2022-12-18T11:30:26;44.27;;;22.00;;
10985;SDS011;5546;48.714;8.738;2022-12-18T11:32:59;45.30;;;22.20;;
10985;SDS011;5546;48.714;8.738;2022-12-18T11:35:35;45.83;;;21.13;;
10985;SDS011;5546;48.714;8.738;2022-12-18T11:40:45;41.73;;;21.83;;
10985;SDS011;5546;48.714;8.738;2022-12-18T11:46:30;47.33;;;23.30;;
10985;SDS011;5546;48.714;8.738;2022-12-18T11:49:00;46.70;;;24.17;;
10985;SDS011;5546;48.714;8.738;2022-12-18T11:51:37;46.33;;;21.70;;
10985;SDS011;5546;48.714;8.738;2022-12-18T11:54:12;43.50;;;22.63;;
10985;SDS011;5546;48.714;8.738;2022-12-18T11:56:43;47.53;;;24.70;;
10985;SDS011;5546;48.714;8.738;2022-12-18T12:02:03;54.00;;;26.07;;
10985;SDS011;5546;48.714;8.738;2022-12-18T12:07:22;44.87;;;24.23;;
10985;SDS011;5546;48.714;8.738;2022-12-18T12:09:53;45.80;;;23.47;;
10985;SDS011;5546;48.714;8.738;2022-12-18T12:18:29;44.17;;;23.33;;
10985;SDS011;5546;48.714;8.738;2022-12-18T12:23:55;38.30;;;21.63;;
10985;SDS011;5546;48.714;8.738;2022-12-18T12:27:14;42.47;;;23.53;;
10985;SDS011;5546;48.714;8.738;2022-12-18T12:29:26;41.30;;;22.57;;
10985;SDS011;5546;48.714;8.738;2022-12-18T12:40:14;44.03;;;23.93;;
10985;SDS011;5546;48.714;8.738;2022-12-18T12:42:48;40.93;;;22.30;;
10985;SDS011;5546;48.714;8.738;2022-12-18T12:48:48;42.50;;;22.70;;
10985;SDS011;5546;48.714;8.738;2022-12-18T12:52:00;44.03;;;23.60;;
10985;SDS011;5546;48.714;8.738;2022-12-18T12:54:17;41.53;;;22.10;;
10985;SDS011;5546;48.714;8.738;2022-12-18T12:56:49;42.07;;;22.83;;
10985;SDS011;5546;48.714;8.738;2022-12-18T13:01:50;39.20;;;21.97;;
10985;SDS011;5546;48.714;8.738;2022-12-18T13:04:36;40.00;;;21.57;;
10985;SDS011;5546;48.714;8.738;2022-12-18T13:07:20;40.80;;;23.00;;
10985;SDS011;5546;48.714;8.738;2022-12-18T13:12:51;39.10;;;22.87;;
10985;SDS011;5546;48.714;8.738;2022-12-18T13:15:22;47.90;;;26.97;;
10985;SDS011;5546;48.714;8.738;2022-12-18T13:18:04;45.83;;;26.03;;
10985;SDS011;5546;48.714;8.738;2022-12-18T13:30:59;40.57;;;21.70;;
10985;SDS011;5546;48.714;8.738;2022-12-18T13:38:37;41.27;;;22.37;;
10985;SDS011;5546;48.714;8.738;2022-12-18T13:41:04;43.27;;;21.93;;
10985;SDS011;5546;48.714;8.738;2022-12-18T13:43:51;47.60;;;22.27;;
10985;SDS011;5546;48.714;8.738;2022-12-18T13:51:43;40.37;;;21.47;;
10985;SDS011;5546;48.714;8.738;2022-12-18T13:56:45;49.83;;;23.13;;
10985;SDS011;5546;48.714;8.738;2022-12-18T14:01:53;40.13;;;21.97;;
10985;SDS011;5546;48.714;8.738;2022-12-18T14:04:30;50.93;;;23.90;;
10985;SDS011;5546;48.714;8.738;2022-12-18T14:06:58;48.13;;;24.53;;
10985;SDS011;5546;48.714;8.738;2022-12-18T14:09:30;43.80;;;22.27;;
10985;SDS011;5546;48.714;8.738;2022-12-18T14:11:59;46.37;;;23.37;;
10985;SDS011;5546;48.714;8.738;2022-12-18T14:14:44;47.70;;;21.83;;
10985;SDS011;5546;48.714;8.738;2022-12-18T14:17:12;47.83;;;23.57;;
10985;SDS011;5546;48.714;8.738;2022-12-18T14:19:43;45.70;;;23.07;;
10985;SDS011;5546;48.714;8.738;2022-12-18T14:22:15;43.70;;;22.33;;
10985;SDS011;5546;48.714;8.738;2022-12-18T14:24:43;48.93;;;24.40;;
10985;SDS011;5546;48.714;8.738;2022-12-18T14:27:25;46.40;;;23.73;;
10985;SDS011;5546;48.714;8.738;2022-12-18T14:29:51;47.53;;;24.67;;
10985;SDS011;5546;48.714;8.738;2022-12-18T14:32:17;45.90;;;22.83;;
10985;SDS011;5546;48.714;8.738;2022-12-18T14:34:49;46.97;;;24.00;;
10985;SDS011;5546;48.714;8.738;2022-12-18T14:37:17;47.33;;;22.33;;
10985;SDS011;5546;48.714;8.738;2022-12-18T14:39:56;45.43;;;22.50;;
10985;SDS011;5546;48.714;8.738;2022-12-18T14:42:24;46.63;;;24.00;;
10985;SDS011;5546;48.714;8.738;2022-12-18T14:45:17;42.90;;;22.30;;
10985;SDS011;5546;48.714;8.738;2022-12-18T14:47:56;46.93;;;23.17;;
10985;SDS011;5546;48.714;8.738;2022-12-18T14:50:22;49.17;;;24.30;;
10985;SDS011;5546;48.714;8.738;2022-12-18T14:52:48;45.03;;;23.00;;
10985;SDS011;5546;48.714;8.738;2022-12-18T14:55:16;46.67;;;23.93;;
10985;SDS011;5546;48.714;8.738;2022-12-18T14:57:42;51.60;;;24.90;;
10985;SDS011;5546;48.714;8.738;2022-12-18T15:00:15;47.20;;;23.60;;
10985;SDS011;5546;48.714;8.738;2022-12-18T15:02:47;48.27;;;22.97;;
10985;SDS011;5546;48.714;8.738;2022-12-18T15:05:35;46.33;;;23.93;;
10985;SDS011;5546;48.714;8.738;2022-12-18T15:08:00;47.10;;;21.80;;
10985;SDS011;5546;48.714;8.738;2022-12-18T15:10:31;46.77;;;23.40;;
10985;SDS011;5546;48.714;8.738;2022-12-18T15:18:03;52.30;;;25.17;;
10985;SDS011;5546;48.714;8.738;2022-12-18T15:20:32;52.93;;;24.87;;
10985;SDS011;5546;48.714;8.738;2022-12-18T15:23:05;51.63;;;24.63;;
10985;SDS011;5546;48.714;8.738;2022-12-18T15:25:48;54.20;;;24.10;;
10985;SDS011;5546;48.714;8.738;2022-12-18T15:28:37;56.60;;;26.07;;
10985;SDS011;5546;48.714;8.738;2022-12-18T15:33:35;62.33;;;28.70;;
10985;SDS011;5546;48.714;8.738;2022-12-18T15:36:28;49.77;;;24.37;;
10985;SDS011;5546;48.714;8.738;2022-12-18T15:38:55;52.93;;;24.77;;
10985;SDS011;5546;48.714;8.738;2022-12-18T15:41:22;47.77;;;24.13;;
10985;SDS011;5546;48.714;8.738;2022-12-18T15:43:49;58.70;;;26.33;;
10985;SDS011;5546;48.714;8.738;2022-12-18T15:46:17;55.87;;;24.23;;
10985;SDS011;5546;48.714;8.738;2022-12-18T15:48:48;52.17;;;25.30;;
10985;SDS011;5546;48.714;8.738;2022-12-18T15:51:39;53.00;;;25.07;;
10985;SDS011;5546;48.714;8.738;2022-12-18T15:54:04;60.07;;;26.17;;
10985;SDS011;5546;48.714;8.738;2022-12-18T15:56:34;60.87;;;26.67;;
10985;SDS011;5546;48.714;8.738;2022-12-18T15:59:19;63.30;;;27.33;;
10985;SDS011;5546;48.714;8.738;2022-12-18T16:01:49;62.23;;;28.03;;
10985;SDS011;5546;48.714;8.738;2022-12-18T16:04:18;79.33;;;31.73;;
10985;SDS011;5546;48.714;8.738;2022-12-18T16:06:45;96.70;;;41.40;;
10985;SDS011;5546;48.714;8.738;2022-12-18T16:09:11;70.10;;;29.40;;
10985;SDS011;5546;48.714;8.738;2022-12-18T16:11:37;62.27;;;27.40;;
10985;SDS011;5546;48.714;8.738;2022-12-18T16:14:20;59.00;;;27.80;;
10985;SDS011;5546;48.714;8.738;2022-12-18T16:16:52;64.03;;;28.03;;
10985;SDS011;5546;48.714;8.738;2022-12-18T16:19:22;67.50;;;29.20;;
10985;SDS011;5546;48.714;8.738;2022-12-18T16:21:48;59.00;;;26.87;;
10985;SDS011;5546;48.714;8.738;2022-12-18T16:24:16;58.83;;;27.07;;
10985;SDS011;5546;48.714;8.738;2022-12-18T16:26:43;60.60;;;27.43;;
10985;SDS011;5546;48.714;8.738;2022-12-18T16:29:09;60.33;;;26.77;;
10985;SDS011;5546;48.714;8.738;2022-12-18T16:31:35;62.57;;;26.90;;
10985;SDS011;5546;48.714;8.738;2022-12-18T16:34:20;61.63;;;27.83;;
10985;SDS011;5546;48.714;8.738;2022-12-18T16:36:48;60.67;;;25.60;;
10985;SDS011;5546;48.714;8.738;2022-12-18T16:39:14;56.97;;;26.23;;